createdAt,value
2018-03-31T00:01:53.318Z,99.90
2018-03-31T00:04:21.657Z,99.90
2018-03-31T00:06:49.328Z,99.90
2018-03-31T00:09:16.350Z,99.90
2018-03-31T00:11:43.347Z,99.90
2018-03-31T00:14:10.386Z,99.90
2018-03-31T00:16:37.379Z,99.90
2018-03-31T00:19:04.409Z,99.90
2018-03-31T00:21:31.396Z,99.90
2018-03-31T00:23:58.423Z,99.90
2018-03-31T00:26:25.419Z,99.90
2018-03-31T00:28:52.438Z,99.90
2018-03-31T00:31:19.424Z,99.90
2018-03-31T00:33:46.540Z,99.90
2018-03-31T00:36:13.536Z,99.90
2018-03-31T00:38:40.555Z,99.90
2018-03-31T00:41:08.359Z,99.90
2018-03-31T00:43:36.125Z,99.90
2018-03-31T00:46:03.156Z,99.90
2018-03-31T00:48:30.946Z,99.90
2018-03-31T00:51:46.887Z,99.90
2018-03-31T00:54:13.883Z,99.90
2018-03-31T00:56:40.902Z,99.90
2018-03-31T00:59:07.900Z,99.90
2018-03-31T01:01:34.927Z,99.90
2018-03-31T01:04:01.920Z,99.90
2018-03-31T01:06:28.951Z,99.90
2018-03-31T01:08:55.943Z,99.90
2018-03-31T01:11:23.233Z,99.90
2018-03-31T01:13:51.932Z,99.90
2018-03-31T01:16:20.322Z,99.90
2018-03-31T01:18:51.133Z,99.90
2018-03-31T01:21:22.763Z,99.90
2018-03-31T01:23:53.264Z,99.90
2018-03-31T01:26:20.612Z,99.90
2018-03-31T01:28:47.624Z,99.90
2018-03-31T01:31:15.407Z,99.90
2018-03-31T01:33:43.195Z,99.90
2018-03-31T01:36:10.222Z,99.90
2018-03-31T01:38:37.231Z,99.90
2018-03-31T01:41:04.261Z,99.90
2018-03-31T01:43:32.269Z,99.90
2018-03-31T01:45:59.290Z,99.90
2018-03-31T01:48:27.056Z,99.90
2018-03-31T01:50:54.094Z,99.90
2018-03-31T01:53:21.092Z,99.90
2018-03-31T01:55:48.875Z,99.90
2018-03-31T01:58:16.672Z,99.90
2018-03-31T02:00:43.663Z,99.90
2018-03-31T02:03:10.692Z,99.90
2018-03-31T02:05:38.448Z,99.90
2018-03-31T02:08:05.480Z,99.90
2018-03-31T02:10:32.488Z,99.90
2018-03-31T02:12:59.506Z,99.90
2018-03-31T02:15:26.500Z,99.90
2018-03-31T02:17:54.307Z,99.90
2018-03-31T02:20:21.303Z,99.90
2018-03-31T02:22:49.119Z,99.90
2018-03-31T02:25:16.123Z,99.90
2018-03-31T02:27:43.143Z,99.90
2018-03-31T02:30:10.133Z,99.90
2018-03-31T02:32:37.124Z,99.90
2018-03-31T02:35:04.159Z,99.90
2018-03-31T02:37:31.197Z,99.90
2018-03-31T02:39:58.206Z,99.90
2018-03-31T02:42:25.243Z,99.90
2018-03-31T02:44:52.233Z,99.90
2018-03-31T02:47:19.276Z,99.90
2018-03-31T02:49:46.274Z,99.90
2018-03-31T02:52:13.272Z,99.90
2018-03-31T02:54:40.315Z,99.90
2018-03-31T02:57:07.303Z,99.90
2018-03-31T02:59:34.344Z,99.90
2018-03-31T03:02:01.346Z,99.90
2018-03-31T03:04:28.378Z,99.90
2018-03-31T03:06:55.389Z,99.90
2018-03-31T03:09:23.177Z,99.90
2018-03-31T03:11:50.166Z,99.90
2018-03-31T03:14:17.191Z,99.90
2018-03-31T03:16:44.187Z,99.90
2018-03-31T03:19:11.213Z,99.90
2018-03-31T03:21:38.232Z,99.90
2018-03-31T03:24:05.255Z,99.90
2018-03-31T03:26:32.244Z,99.90
2018-03-31T03:28:59.275Z,99.90
2018-03-31T03:31:26.276Z,99.90
2018-03-31T03:33:53.303Z,99.90
2018-03-31T03:36:20.287Z,99.90
2018-03-31T03:38:47.308Z,99.90
2018-03-31T03:41:14.303Z,99.90
2018-03-31T03:43:41.301Z,99.90
2018-03-31T03:46:09.101Z,99.90
2018-03-31T03:48:36.100Z,99.90
2018-03-31T03:51:03.127Z,99.90
2018-03-31T03:53:30.117Z,99.90
2018-03-31T03:55:57.143Z,99.90
2018-03-31T03:58:24.144Z,99.90
2018-03-31T04:00:51.175Z,99.90
2018-03-31T04:03:18.167Z,99.90
2018-03-31T04:05:45.223Z,99.90
2018-03-31T04:08:12.219Z,99.90
2018-03-31T04:10:39.257Z,99.90
2018-03-31T04:13:06.251Z,99.90
2018-03-31T04:15:33.307Z,99.90
2018-03-31T04:18:00.296Z,99.90
2018-03-31T04:20:27.324Z,99.90
2018-03-31T04:22:54.315Z,99.90
2018-03-31T04:25:21.339Z,99.90
2018-03-31T04:27:49.128Z,99.90
2018-03-31T04:30:16.167Z,99.90
2018-03-31T04:32:43.936Z,99.90
2018-03-31T04:35:11.723Z,99.90
2018-03-31T04:37:38.724Z,99.90
2018-03-31T04:40:05.748Z,99.90
2018-03-31T04:42:33.506Z,99.90
2018-03-31T04:45:01.308Z,99.90
2018-03-31T04:47:28.355Z,99.90
2018-03-31T04:49:56.115Z,99.90
2018-03-31T04:52:23.148Z,99.90
2018-03-31T04:54:50.164Z,99.90
2018-03-31T04:57:17.959Z,99.90
2018-03-31T04:59:44.957Z,99.90
2018-03-31T05:02:11.993Z,99.90
2018-03-31T05:04:38.983Z,99.90
2018-03-31T05:07:06.007Z,99.90
2018-03-31T05:09:33.601Z,99.90
2018-03-31T05:12:00.643Z,99.90
2018-03-31T05:14:27.631Z,99.90
2018-03-31T05:16:54.662Z,99.90
2018-03-31T05:19:21.665Z,99.90
2018-03-31T05:21:48.684Z,99.90
2018-03-31T05:24:15.679Z,99.90
2018-03-31T05:26:42.706Z,99.90
2018-03-31T05:29:09.722Z,99.90
2018-03-31T05:31:36.723Z,99.90
2018-03-31T05:34:05.488Z,99.90
2018-03-31T05:36:32.492Z,99.90
2018-03-31T05:38:59.527Z,99.90
2018-03-31T05:41:27.306Z,99.90
2018-03-31T05:43:54.332Z,99.90
2018-03-31T05:46:22.082Z,99.90
2018-03-31T05:48:50.950Z,99.90
2018-03-31T05:51:17.937Z,99.90
2018-03-31T05:53:44.979Z,99.90
2018-03-31T05:56:12.065Z,99.90
2018-03-31T05:58:39.269Z,99.90
2018-03-31T06:01:07.027Z,99.90
2018-03-31T06:03:34.116Z,99.90
2018-03-31T06:06:01.091Z,99.90
2018-03-31T06:08:28.152Z,99.90
2018-03-31T06:10:55.140Z,99.90
2018-03-31T06:13:22.178Z,99.90
2018-03-31T06:15:49.199Z,99.90
2018-03-31T06:18:17.005Z,99.90
2018-03-31T06:20:44.027Z,99.90
2018-03-31T06:23:11.828Z,99.90
2018-03-31T06:25:38.815Z,99.90
2018-03-31T06:28:05.824Z,99.90
2018-03-31T06:30:32.829Z,99.90
2018-03-31T06:32:59.860Z,99.90
2018-03-31T06:35:26.907Z,99.90
2018-03-31T06:37:54.663Z,99.90
2018-03-31T06:40:24.063Z,99.90
2018-03-31T06:42:51.056Z,99.90
2018-03-31T06:45:18.076Z,99.90
2018-03-31T06:47:45.109Z,99.90
2018-03-31T06:50:12.913Z,99.90
2018-03-31T06:52:39.917Z,99.90
2018-03-31T06:55:07.007Z,99.90
2018-03-31T06:57:34.004Z,99.90
2018-03-31T07:00:01.030Z,99.90
2018-03-31T07:02:28.039Z,99.90
2018-03-31T07:04:55.079Z,99.90
2018-03-31T07:07:22.085Z,99.90
2018-03-31T07:09:49.894Z,91.90
2018-03-31T07:12:17.186Z,91.90
2018-03-31T07:14:44.494Z,83.40
2018-03-31T07:17:11.616Z,72.00
2018-03-31T07:19:38.775Z,61.50
2018-03-31T07:22:06.449Z,60.80
2018-03-31T07:24:33.706Z,63.40
2018-03-31T07:27:00.735Z,59.80
2018-03-31T07:29:27.747Z,56.60
2018-03-31T07:31:55.106Z,53.90
2018-03-31T07:34:22.133Z,53.80
2018-03-31T07:36:49.230Z,50.50
2018-03-31T07:39:17.317Z,48.90
2018-03-31T07:41:44.356Z,48.50
2018-03-31T07:44:11.371Z,47.00
2018-03-31T07:46:38.427Z,45.70
2018-03-31T07:49:05.877Z,46.10
2018-03-31T07:51:33.152Z,45.80
2018-03-31T07:54:00.924Z,40.70
2018-03-31T07:56:27.953Z,41.20
2018-03-31T07:58:54.965Z,40.80
2018-03-31T08:01:22.757Z,44.10
2018-03-31T08:03:49.749Z,44.10
2018-03-31T08:06:16.787Z,44.30
2018-03-31T08:08:43.775Z,43.50
2018-03-31T08:11:10.800Z,43.00
2018-03-31T08:13:37.842Z,41.40
2018-03-31T08:16:04.941Z,41.50
2018-03-31T08:18:32.005Z,43.10
2018-03-31T08:20:59.051Z,44.10
2018-03-31T08:23:26.053Z,41.70
2018-03-31T08:25:53.042Z,41.40
2018-03-31T08:28:20.832Z,39.80
2018-03-31T08:30:48.588Z,38.80
2018-03-31T08:33:15.574Z,38.80
2018-03-31T08:35:42.643Z,36.80
2018-03-31T08:38:12.955Z,34.50
2018-03-31T08:40:40.800Z,33.20
2018-03-31T08:43:07.835Z,33.20
2018-03-31T08:45:35.675Z,33.30
2018-03-31T08:48:03.469Z,31.60
2018-03-31T08:50:30.488Z,31.50
2018-03-31T08:52:57.524Z,31.90
2018-03-31T08:55:24.516Z,30.00
2018-03-31T08:57:51.575Z,30.00
2018-03-31T09:00:18.575Z,28.20
2018-03-31T09:02:45.599Z,28.00
2018-03-31T09:05:12.613Z,28.20
2018-03-31T09:07:39.649Z,29.40
2018-03-31T09:10:06.664Z,30.70
2018-03-31T09:12:33.691Z,31.30
2018-03-31T09:15:00.696Z,30.30
2018-03-31T09:17:27.734Z,30.40
2018-03-31T09:19:54.731Z,29.60
2018-03-31T09:22:22.493Z,29.80
2018-03-31T09:24:49.520Z,29.80
2018-03-31T09:27:16.524Z,29.40
2018-03-31T09:29:44.299Z,29.30
2018-03-31T09:32:11.350Z,29.30
2018-03-31T09:34:38.375Z,29.50
2018-03-31T09:37:05.366Z,29.40
2018-03-31T09:39:32.400Z,28.70
2018-03-31T09:41:59.391Z,27.70
2018-03-31T09:44:26.425Z,27.70
2018-03-31T09:46:53.412Z,27.00
2018-03-31T09:49:20.442Z,27.10
2018-03-31T09:51:47.431Z,26.00
2018-03-31T09:54:14.451Z,26.80
2018-03-31T09:56:41.441Z,28.20
2018-03-31T09:59:08.467Z,26.80
2018-03-31T10:01:35.485Z,26.60
2018-03-31T10:04:03.335Z,26.60
2018-03-31T10:06:30.328Z,26.60
2018-03-31T10:08:58.152Z,25.50
2018-03-31T10:11:25.144Z,25.40
2018-03-31T10:13:52.166Z,24.60
2018-03-31T10:16:19.164Z,25.80
2018-03-31T10:18:46.209Z,25.80
2018-03-31T10:21:13.199Z,26.70
2018-03-31T10:23:40.958Z,26.60
2018-03-31T10:26:07.979Z,26.50
2018-03-31T10:28:34.973Z,27.50
2018-03-31T10:31:01.980Z,27.10
2018-03-31T10:33:28.998Z,26.50
2018-03-31T10:35:56.030Z,25.80
2018-03-31T10:38:23.025Z,26.60
2018-03-31T10:40:50.823Z,29.90
2018-03-31T10:43:18.574Z,28.80
2018-03-31T10:45:45.595Z,28.80
2018-03-31T10:48:12.584Z,30.00
2018-03-31T10:50:39.641Z,29.50
2018-03-31T10:53:06.630Z,30.00
2018-03-31T10:55:34.436Z,29.90
2018-03-31T10:58:01.435Z,29.90
2018-03-31T11:00:28.462Z,29.00
2018-03-31T11:02:55.464Z,27.40
2018-03-31T11:05:22.501Z,27.10
2018-03-31T11:07:49.503Z,29.10
2018-03-31T11:10:17.316Z,33.90
2018-03-31T11:12:44.310Z,33.80
2018-03-31T11:15:11.304Z,35.90
2018-03-31T11:17:39.099Z,39.00
2018-03-31T11:20:06.871Z,36.70
2018-03-31T11:22:33.912Z,36.70
2018-03-31T11:25:01.147Z,39.30
2018-03-31T11:27:28.192Z,39.50
2018-03-31T11:29:55.427Z,39.50
2018-03-31T11:32:22.662Z,39.40
2018-03-31T11:34:50.464Z,38.80
2018-03-31T11:37:17.642Z,38.80
2018-03-31T11:39:44.644Z,38.00
2018-03-31T11:42:11.672Z,37.10
2018-03-31T11:44:38.668Z,37.80
2018-03-31T11:47:05.706Z,38.00
2018-03-31T11:49:32.705Z,37.80
2018-03-31T11:51:59.739Z,35.50
2018-03-31T11:54:26.755Z,35.50
2018-03-31T11:56:53.816Z,33.90
2018-03-31T11:59:20.816Z,35.80
2018-03-31T12:01:47.844Z,38.50
2018-03-31T12:04:14.836Z,38.80
2018-03-31T12:06:41.860Z,40.00
2018-03-31T12:09:08.885Z,39.50
2018-03-31T12:11:35.887Z,40.10
2018-03-31T12:14:02.911Z,40.60
2018-03-31T12:16:29.982Z,41.10
2018-03-31T12:18:57.018Z,41.00
2018-03-31T12:21:24.003Z,40.60
2018-03-31T12:23:51.045Z,41.00
2018-03-31T12:26:18.809Z,38.00
2018-03-31T12:28:45.832Z,37.90
2018-03-31T12:31:12.823Z,39.30
2018-03-31T12:33:39.856Z,39.70
2018-03-31T12:36:06.855Z,40.20
2018-03-31T12:38:33.882Z,40.40
2018-03-31T12:41:00.883Z,40.40
2018-03-31T12:43:28.676Z,41.20
2018-03-31T12:45:55.667Z,41.80
2018-03-31T12:48:22.791Z,41.00
2018-03-31T12:50:49.795Z,40.60
2018-03-31T12:53:16.819Z,40.60
2018-03-31T12:55:43.814Z,40.10
2018-03-31T12:58:10.844Z,40.00
2018-03-31T13:00:37.835Z,38.80
2018-03-31T13:03:04.839Z,37.90
2018-03-31T13:05:32.624Z,38.70
2018-03-31T13:07:59.671Z,38.70
2018-03-31T13:10:27.496Z,39.50
2018-03-31T13:12:54.538Z,39.50
2018-03-31T13:15:21.571Z,39.70
2018-03-31T13:17:49.319Z,38.70
2018-03-31T13:20:16.355Z,38.70
2018-03-31T13:22:43.353Z,38.40
2018-03-31T13:25:10.405Z,37.60
2018-03-31T13:27:37.403Z,38.20
2018-03-31T13:30:04.427Z,36.50
2018-03-31T13:32:31.420Z,36.40
2018-03-31T13:34:59.236Z,37.90
2018-03-31T13:37:26.924Z,37.90
2018-03-31T13:39:53.947Z,38.90
2018-03-31T13:42:24.334Z,39.00
2018-03-31T13:44:51.358Z,39.30
2018-03-31T13:47:18.350Z,39.80
2018-03-31T13:49:46.444Z,39.70
2018-03-31T13:52:13.492Z,40.10
2018-03-31T13:54:40.526Z,39.10
2018-03-31T13:57:07.541Z,38.60
2018-03-31T13:59:34.582Z,38.20
2018-03-31T14:02:01.580Z,37.40
2018-03-31T14:04:28.575Z,38.50
2018-03-31T14:06:55.653Z,39.20
2018-03-31T14:09:22.644Z,40.20
2018-03-31T14:11:50.470Z,41.60
2018-03-31T14:14:17.462Z,41.60
2018-03-31T14:16:44.491Z,41.20
2018-03-31T14:19:11.500Z,42.70
2018-03-31T14:21:39.303Z,43.60
2018-03-31T14:24:06.295Z,43.60
2018-03-31T14:26:33.352Z,44.60
2018-03-31T14:29:00.348Z,44.80
2018-03-31T14:31:27.374Z,44.70
2018-03-31T14:33:54.375Z,44.80
2018-03-31T14:36:22.176Z,43.70
2018-03-31T14:38:49.175Z,43.70
2018-03-31T14:41:16.212Z,41.30
2018-03-31T14:43:43.211Z,40.40
2018-03-31T14:46:10.245Z,41.90
2018-03-31T14:48:37.257Z,43.00
2018-03-31T14:51:05.075Z,43.60
2018-03-31T14:53:32.064Z,43.60
2018-03-31T14:55:59.060Z,44.20
2018-03-31T14:58:26.088Z,45.80
2018-03-31T15:00:53.094Z,45.50
2018-03-31T15:03:20.111Z,45.50
2018-03-31T15:05:47.111Z,46.20
2018-03-31T15:08:14.160Z,45.40
2018-03-31T15:10:41.164Z,45.90
2018-03-31T15:13:08.207Z,46.10
2018-03-31T15:15:35.194Z,46.90
2018-03-31T15:18:02.236Z,46.70
2018-03-31T15:20:29.243Z,46.40
2018-03-31T15:22:57.039Z,46.10
2018-03-31T15:25:24.023Z,46.00
2018-03-31T15:27:51.044Z,47.10
2018-03-31T15:30:18.099Z,47.30
2018-03-31T15:32:45.115Z,46.80
2018-03-31T15:35:12.158Z,48.40
2018-03-31T15:37:39.152Z,48.20
2018-03-31T15:40:06.228Z,48.00
2018-03-31T15:42:33.219Z,48.00
2018-03-31T15:45:00.207Z,47.50
2018-03-31T15:47:27.253Z,47.10
2018-03-31T15:49:54.268Z,47.40
2018-03-31T15:52:21.271Z,48.20
2018-03-31T15:54:49.179Z,47.50
2018-03-31T15:57:16.176Z,46.80
2018-03-31T15:59:43.979Z,45.40
2018-03-31T16:02:10.993Z,45.40
2018-03-31T16:04:38.020Z,45.20
2018-03-31T16:07:05.019Z,43.10
2018-03-31T16:09:32.048Z,43.20
2018-03-31T16:11:59.117Z,42.80
2018-03-31T16:14:26.147Z,47.70
2018-03-31T16:16:53.135Z,50.00
2018-03-31T16:19:20.161Z,51.10
2018-03-31T16:21:47.223Z,51.80
2018-03-31T16:24:14.248Z,54.10
2018-03-31T16:26:42.003Z,58.10
2018-03-31T16:29:09.039Z,57.90
2018-03-31T16:31:36.041Z,58.10
2018-03-31T16:34:03.190Z,58.00
2018-03-31T16:36:30.223Z,58.90
2018-03-31T16:38:57.271Z,59.90
2018-03-31T16:41:24.272Z,60.10
2018-03-31T16:43:51.299Z,60.50
2018-03-31T16:46:18.296Z,62.50
2018-03-31T16:48:45.296Z,63.90
2018-03-31T16:51:12.328Z,63.30
2018-03-31T16:53:40.103Z,65.20
2018-03-31T16:56:07.903Z,65.40
2018-03-31T16:58:34.895Z,65.40
2018-03-31T17:01:01.927Z,64.30
2018-03-31T17:03:28.930Z,64.00
2018-03-31T17:05:55.973Z,63.80
2018-03-31T17:08:22.987Z,63.60
2018-03-31T17:10:50.022Z,62.20
2018-03-31T17:13:17.081Z,61.20
2018-03-31T17:15:44.128Z,60.80
2018-03-31T17:18:11.120Z,60.70
2018-03-31T17:20:38.194Z,59.00
2018-03-31T17:23:05.202Z,58.40
2018-03-31T17:25:32.479Z,58.50
2018-03-31T17:27:59.467Z,59.00
2018-03-31T17:30:26.504Z,60.00
2018-03-31T17:32:53.547Z,61.20
2018-03-31T17:35:24.764Z,62.90
2018-03-31T17:37:51.789Z,63.40
2018-03-31T17:40:19.445Z,65.00
2018-03-31T17:42:46.483Z,65.30
2018-03-31T17:45:13.948Z,65.80
2018-03-31T17:47:40.972Z,67.20
2018-03-31T17:50:13.140Z,67.00
2018-03-31T17:52:40.707Z,67.70
2018-03-31T17:55:07.719Z,67.90
2018-03-31T17:57:37.844Z,68.50
2018-03-31T18:00:05.011Z,69.50
2018-03-31T18:02:32.048Z,70.50
2018-03-31T18:04:59.488Z,72.40
2018-03-31T18:07:26.512Z,73.50
2018-03-31T18:09:53.527Z,74.70
2018-03-31T18:15:00.612Z,76.50
2018-03-31T18:17:28.315Z,77.40
2018-03-31T18:19:55.323Z,78.40
2018-03-31T18:22:22.618Z,79.20
2018-03-31T18:24:49.621Z,79.80
2018-03-31T18:27:18.292Z,82.00
2018-03-31T18:29:45.304Z,82.00
2018-03-31T18:32:12.345Z,82.70
2018-03-31T18:34:39.348Z,83.30
2018-03-31T18:37:06.376Z,84.10
2018-03-31T18:39:33.372Z,84.70
2018-03-31T18:42:01.060Z,85.20
2018-03-31T18:44:28.064Z,85.70
2018-03-31T18:46:56.050Z,86.20
2018-03-31T18:49:23.814Z,86.40
2018-03-31T18:51:50.908Z,86.30
2018-03-31T18:54:18.397Z,86.30
2018-03-31T18:56:45.407Z,86.30
2018-03-31T18:59:12.819Z,86.30
2018-03-31T19:01:40.239Z,86.50
2018-03-31T19:04:07.315Z,86.10
2018-03-31T19:06:34.301Z,85.80
2018-03-31T19:09:01.988Z,86.00
2018-03-31T19:11:28.980Z,86.00
2018-03-31T19:13:56.151Z,85.80
2018-03-31T19:19:31.210Z,85.90
2018-03-31T19:21:58.245Z,85.80
2018-03-31T19:24:25.298Z,85.80
2018-03-31T19:26:52.295Z,85.80
2018-03-31T19:29:19.305Z,85.90
2018-03-31T19:31:47.420Z,86.00
2018-03-31T19:34:14.496Z,86.80
2018-03-31T19:36:41.460Z,86.90
2018-03-31T19:39:08.496Z,87.50
2018-03-31T19:41:35.487Z,87.30
2018-03-31T19:44:02.614Z,86.90
2018-03-31T19:46:29.621Z,86.80
2018-03-31T19:48:56.695Z,86.10
2018-03-31T19:51:23.751Z,85.80
2018-03-31T19:53:51.559Z,83.70
2018-03-31T19:56:18.563Z,83.70
2018-03-31T19:58:45.587Z,84.80
2018-03-31T20:01:12.575Z,86.40
2018-03-31T20:03:39.583Z,88.80
2018-03-31T20:06:06.624Z,90.00
2018-03-31T20:08:33.615Z,89.60
2018-03-31T20:11:00.654Z,90.40
2018-03-31T20:13:28.443Z,92.00
2018-03-31T20:15:56.702Z,92.00
2018-03-31T20:18:23.699Z,92.00
2018-03-31T20:20:50.729Z,92.60
2018-03-31T20:23:17.723Z,93.30
2018-03-31T20:25:44.784Z,94.10
2018-03-31T20:28:11.841Z,95.00
2018-03-31T20:30:38.830Z,95.70
2018-03-31T20:33:06.108Z,96.70
2018-03-31T20:35:33.093Z,97.70
2018-03-31T20:38:00.119Z,98.10
2018-03-31T20:40:27.155Z,98.70
2018-03-31T20:42:54.145Z,98.90
2018-03-31T20:45:21.200Z,98.90
2018-03-31T20:47:48.272Z,99.30
2018-03-31T20:50:15.313Z,99.90
2018-03-31T20:52:42.400Z,99.90
2018-03-31T20:55:09.448Z,99.90
2018-03-31T20:57:36.447Z,99.90
2018-03-31T21:00:03.444Z,99.90
2018-03-31T21:02:30.467Z,99.90
2018-03-31T21:04:57.482Z,99.90
2018-03-31T21:07:24.511Z,99.90
2018-03-31T21:09:51.506Z,99.90
2018-03-31T21:12:18.552Z,99.90
2018-03-31T21:14:45.544Z,99.90
2018-03-31T21:17:12.586Z,99.90
2018-03-31T21:19:39.585Z,99.50
2018-03-31T21:22:07.376Z,99.30
2018-03-31T21:24:34.364Z,99.30
2018-03-31T21:27:01.388Z,99.30
2018-03-31T21:29:28.389Z,99.00
2018-03-31T21:31:55.409Z,98.40
2018-03-31T21:34:22.402Z,98.20
2018-03-31T21:36:49.439Z,98.20
2018-03-31T21:39:16.427Z,98.10
2018-03-31T21:41:43.457Z,98.10
2018-03-31T21:44:10.504Z,98.60
2018-03-31T21:46:38.291Z,99.10
2018-03-31T21:49:05.279Z,99.10
2018-03-31T21:51:32.297Z,99.90
2018-03-31T21:53:59.377Z,99.90
2018-03-31T21:56:26.401Z,99.90
2018-03-31T21:58:54.653Z,99.90
2018-03-31T22:01:21.647Z,99.90
2018-03-31T22:03:48.724Z,99.90
2018-03-31T22:06:15.723Z,99.90
2018-03-31T22:08:42.748Z,99.90
2018-03-31T22:11:09.803Z,99.90
2018-03-31T22:13:42.613Z,99.90
2018-03-31T22:16:09.624Z,99.90
2018-03-31T22:18:36.652Z,99.90
2018-03-31T22:21:03.664Z,99.90
2018-03-31T22:23:31.864Z,99.90
2018-03-31T22:25:59.624Z,99.90
2018-03-31T22:28:26.664Z,99.90
2018-03-31T22:30:53.653Z,99.90
2018-03-31T22:33:21.447Z,99.90
2018-03-31T22:35:49.207Z,99.90
2018-03-31T22:38:16.232Z,99.90
2018-03-31T22:40:43.211Z,99.90
2018-03-31T22:43:10.236Z,99.90
2018-03-31T22:45:37.232Z,99.90
2018-03-31T22:48:04.269Z,99.90
2018-03-31T22:50:31.259Z,99.90
2018-03-31T22:52:58.248Z,99.90
2018-03-31T22:55:25.275Z,99.90
2018-03-31T22:57:52.273Z,99.90
2018-03-31T23:00:19.298Z,99.90
2018-03-31T23:02:46.293Z,99.90
2018-03-31T23:05:13.328Z,99.90
2018-03-31T23:07:41.087Z,99.90
2018-03-31T23:10:08.115Z,99.90
2018-03-31T23:12:35.104Z,99.90
2018-03-31T23:15:02.136Z,99.90
2018-03-31T23:17:29.126Z,99.90
2018-03-31T23:19:56.144Z,99.90
2018-03-31T23:22:23.135Z,99.90
2018-03-31T23:24:50.156Z,99.90
2018-03-31T23:27:17.140Z,99.90
2018-03-31T23:29:44.147Z,99.90
2018-03-31T23:32:11.904Z,99.90
2018-03-31T23:34:38.956Z,99.90
2018-03-31T23:37:05.939Z,99.90
2018-03-31T23:39:33.715Z,99.90
2018-03-31T23:42:01.504Z,99.90
2018-03-31T23:44:28.506Z,99.90
2018-03-31T23:46:55.551Z,99.90
2018-03-31T23:49:22.545Z,99.90
2018-03-31T23:51:49.568Z,99.90
2018-03-31T23:54:16.553Z,99.90
2018-03-31T23:56:43.574Z,99.90
2018-03-31T23:59:10.568Z,99.90
